Time;durP1;ratioP1;P1;durP2;ratioP2;P2;SDS_P1;SDS_P2;PMS_P1;PMS_P2;Temp;Humidity;BMP_temperature;BMP_pressure;BME280_temperature;BME280_humidity;BME280_pressure;Samples;Min_cycle;Max_cycle;Signal;HPM_P1;HPM_P2
2021/09/06 00:02:16;;;;;;;37.60;33.73;;;13.80;99.90;;;;;;5039976;28;20459;-70
2021/09/06 00:04:45;;;;;;;36.57;32.63;;;13.70;99.90;;;;;;5044135;28;20503;-70
2021/09/06 00:07:13;;;;;;;38.83;33.33;;;13.60;99.90;;;;;;5059042;28;20459;-71
2021/09/06 00:09:41;;;;;;;40.10;35.77;;;13.60;99.90;;;;;;5038941;28;20921;-71
2021/09/06 00:12:09;;;;;;;38.70;34.40;;;13.60;99.90;;;;;;5046154;28;20458;-71
2021/09/06 00:14:36;;;;;;;37.77;34.07;;;13.60;99.90;;;;;;5045606;28;20460;-71
2021/09/06 00:17:03;;;;;;;39.90;35.60;;;13.60;99.90;;;;;;5046685;28;20524;-71
2021/09/06 00:19:30;;;;;;;41.40;34.80;;;13.60;99.90;;;;;;5057182;28;20809;-72
2021/09/06 00:21:59;;;;;;;41.10;36.40;;;13.60;99.90;;;;;;5063858;28;20457;-72
2021/09/06 00:24:27;;;;;;;38.77;34.67;;;13.70;99.90;;;;;;5055971;28;20454;-71
2021/09/06 00:26:54;;;;;;;38.03;34.13;;;13.70;99.90;;;;;;5046900;28;20452;-71
2021/09/06 00:29:22;;;;;;;46.67;35.80;;;13.70;99.90;;;;;;5044488;28;20943;-71
2021/09/06 00:31:50;;;;;;;43.47;37.70;;;13.60;99.90;;;;;;5052168;28;20458;-71
2021/09/06 00:34:17;;;;;;;40.70;34.90;;;13.60;99.90;;;;;;5054076;28;20487;-71
2021/09/06 00:36:44;;;;;;;40.50;36.20;;;13.70;99.90;;;;;;5044393;28;20479;-71
2021/09/06 00:39:13;;;;;;;41.93;37.40;;;13.70;99.90;;;;;;5043824;28;20563;-71
2021/09/06 00:41:42;;;;;;;40.57;36.10;;;13.70;99.90;;;;;;5046794;28;20463;-71
2021/09/06 00:44:09;;;;;;;37.73;33.83;;;13.60;99.90;;;;;;5050574;28;20731;-71
2021/09/06 00:46:36;;;;;;;39.70;34.23;;;13.50;99.90;;;;;;5046500;28;20478;-71
2021/09/06 00:49:04;;;;;;;37.03;33.17;;;13.50;99.90;;;;;;5046156;28;20458;-72
2021/09/06 00:51:31;;;;;;;38.00;34.10;;;13.40;99.90;;;;;;5044860;28;20460;-71
2021/09/06 00:53:58;;;;;;;35.97;32.37;;;13.40;99.90;;;;;;5042009;28;20475;-71
2021/09/06 00:56:27;;;;;;;38.77;34.80;;;13.40;99.90;;;;;;5053978;28;20975;-70
2021/09/06 00:58:55;;;;;;;39.50;35.40;;;13.30;99.90;;;;;;5036164;28;20463;-71
2021/09/06 01:01:22;;;;;;;40.63;35.83;;;13.30;99.90;;;;;;5048765;28;20450;-71
2021/09/06 01:03:49;;;;;;;39.23;35.33;;;13.20;99.90;;;;;;5044158;28;20833;-71
2021/09/06 01:06:16;;;;;;;37.10;33.37;;;13.20;99.90;;;;;;5042457;28;20483;-70
2021/09/06 01:08:44;;;;;;;37.97;34.23;;;13.20;99.90;;;;;;5045565;28;20460;-70
2021/09/06 01:11:11;;;;;;;37.70;33.80;;;13.20;99.90;;;;;;5059773;28;20461;-71
2021/09/06 01:13:39;;;;;;;38.20;34.37;;;13.10;99.90;;;;;;5055478;28;20918;-71
2021/09/06 01:16:07;;;;;;;40.30;35.87;;;13.10;99.90;;;;;;5052048;28;20964;-69
2021/09/06 01:18:37;;;;;;;39.80;35.47;;;13.10;99.90;;;;;;5046331;28;20467;-71
2021/09/06 01:21:05;;;;;;;40.93;36.53;;;13.00;99.90;;;;;;5044268;28;20464;-71
2021/09/06 01:23:32;;;;;;;43.00;38.40;;;13.00;99.90;;;;;;5052492;28;20461;-71
2021/09/06 01:26:01;;;;;;;49.30;37.47;;;13.00;99.90;;;;;;5039957;28;20463;-71
2021/09/06 01:28:30;;;;;;;37.10;33.17;;;13.00;99.90;;;;;;5046131;28;20462;-70
2021/09/06 01:30:57;;;;;;;39.50;35.00;;;12.90;99.90;;;;;;5047311;28;20456;-70
2021/09/06 01:33:24;;;;;;;38.07;34.13;;;13.00;99.90;;;;;;5045815;28;20488;-71
2021/09/06 01:35:52;;;;;;;43.17;37.10;;;13.00;99.90;;;;;;5054022;28;20935;-71
2021/09/06 01:38:20;;;;;;;41.53;35.50;;;13.00;99.90;;;;;;5044711;28;20458;-72
2021/09/06 01:40:47;;;;;;;41.90;36.33;;;12.90;99.90;;;;;;5045183;28;20460;-71
2021/09/06 01:43:16;;;;;;;42.73;35.10;;;12.90;99.90;;;;;;5037624;28;20456;-70
2021/09/06 01:45:43;;;;;;;38.80;34.67;;;12.90;99.90;;;;;;5048583;28;20459;-71
2021/09/06 01:48:10;;;;;;;40.70;36.40;;;12.90;99.90;;;;;;5042870;28;20472;-70
2021/09/06 01:50:38;;;;;;;37.10;33.40;;;12.80;99.90;;;;;;5036731;28;20452;-71
2021/09/06 01:53:06;;;;;;;40.40;36.17;;;12.80;99.90;;;;;;5048082;28;20486;-72
2021/09/06 01:55:33;;;;;;;41.47;37.17;;;12.80;99.90;;;;;;5054003;28;20468;-70
2021/09/06 01:58:00;;;;;;;41.03;36.70;;;12.80;99.90;;;;;;5044277;28;20988;-71
2021/09/06 02:00:29;;;;;;;39.03;34.80;;;12.70;99.90;;;;;;5044940;28;20460;-71
2021/09/06 02:02:57;;;;;;;42.37;35.83;;;12.60;99.90;;;;;;5045084;28;20471;-71
2021/09/06 02:05:25;;;;;;;44.80;33.30;;;12.60;99.90;;;;;;5045322;28;20455;-71
2021/09/06 02:07:52;;;;;;;39.83;33.63;;;12.70;99.90;;;;;;5046694;28;20487;-70
2021/09/06 02:10:19;;;;;;;39.63;35.23;;;12.60;99.90;;;;;;5037168;28;20668;-71
2021/09/06 02:12:46;;;;;;;40.60;34.63;;;12.60;99.90;;;;;;5052299;28;20465;-71
2021/09/06 02:15:15;;;;;;;44.17;35.40;;;12.50;99.90;;;;;;5045966;28;20469;-70
2021/09/06 02:17:47;;;;;;;42.90;37.27;;;12.50;99.90;;;;;;5044226;28;20496;-70
2021/09/06 02:20:16;;;;;;;42.47;37.20;;;12.60;99.90;;;;;;5043566;28;20452;-70
2021/09/06 02:22:43;;;;;;;43.40;38.37;;;12.60;99.90;;;;;;5050478;28;20801;-70
2021/09/06 02:25:10;;;;;;;40.47;36.07;;;12.50;99.90;;;;;;5046777;28;20466;-70
2021/09/06 02:27:40;;;;;;;38.97;34.90;;;12.50;99.90;;;;;;5042032;28;20466;-71
2021/09/06 02:30:08;;;;;;;39.80;35.10;;;12.50;99.90;;;;;;5045675;28;20447;-70
2021/09/06 02:32:35;;;;;;;40.67;36.07;;;12.50;99.90;;;;;;5044039;28;20483;-72
2021/09/06 02:35:04;;;;;;;40.73;34.27;;;12.50;99.90;;;;;;5039108;28;20493;-71
2021/09/06 02:37:31;;;;;;;41.33;36.77;;;12.50;99.90;;;;;;5040097;28;20579;-71
2021/09/06 02:39:59;;;;;;;42.90;36.70;;;12.50;99.90;;;;;;5049995;28;20447;-70
2021/09/06 02:42:26;;;;;;;43.50;36.43;;;12.40;99.90;;;;;;5044227;28;20456;-70
2021/09/06 02:44:54;;;;;;;38.90;34.70;;;12.40;99.90;;;;;;5044384;28;20456;-70
2021/09/06 02:47:23;;;;;;;48.30;38.03;;;12.40;99.90;;;;;;5045554;28;20532;-70
2021/09/06 02:49:50;;;;;;;45.70;36.27;;;12.50;99.90;;;;;;5035060;28;20464;-71
2021/09/06 02:52:18;;;;;;;41.23;35.07;;;12.40;99.90;;;;;;5043914;28;20833;-70
2021/09/06 02:54:45;;;;;;;41.63;35.40;;;12.50;99.90;;;;;;5048766;28;20452;-71
2021/09/06 02:57:13;;;;;;;39.23;34.67;;;12.40;99.90;;;;;;5047177;28;20490;-70
2021/09/06 02:59:41;;;;;;;38.20;34.10;;;12.40;99.90;;;;;;5046898;28;20954;-70
2021/09/06 03:02:09;;;;;;;38.10;34.20;;;12.30;99.90;;;;;;5044046;28;20460;-71
2021/09/06 03:04:35;;;;;;;41.17;35.53;;;12.30;99.90;;;;;;5043291;28;20492;-70
2021/09/06 03:07:02;;;;;;;37.47;33.73;;;12.20;99.90;;;;;;5046670;28;20461;-72
2021/09/06 03:09:31;;;;;;;37.80;34.00;;;12.20;99.90;;;;;;5039673;28;20453;-72
2021/09/06 03:11:59;;;;;;;36.47;32.83;;;12.10;99.90;;;;;;5042747;28;20455;-70
2021/09/06 03:14:26;;;;;;;38.73;33.30;;;12.10;99.90;;;;;;5049852;28;20455;-69
2021/09/06 03:16:54;;;;;;;41.53;34.40;;;12.00;99.90;;;;;;5046126;28;20490;-72
2021/09/06 03:19:21;;;;;;;42.57;35.20;;;12.00;99.90;;;;;;5043625;28;20459;-71
2021/09/06 03:21:49;;;;;;;38.90;34.90;;;12.00;99.90;;;;;;5048417;28;20932;-70
2021/09/06 03:24:17;;;;;;;41.27;35.70;;;12.00;99.90;;;;;;5046534;28;20461;-70
2021/09/06 03:26:46;;;;;;;45.83;36.37;;;12.00;99.90;;;;;;5043136;28;20470;-70
2021/09/06 03:29:13;;;;;;;45.77;36.47;;;11.90;99.90;;;;;;5045376;28;20453;-70
2021/09/06 03:31:42;;;;;;;39.30;34.60;;;11.90;99.90;;;;;;5036425;28;20486;-71
2021/09/06 03:34:10;;;;;;;40.97;36.47;;;11.90;99.90;;;;;;5034392;28;20517;-70
2021/09/06 03:36:36;;;;;;;43.67;35.87;;;11.90;99.90;;;;;;5054288;28;20452;-71
2021/09/06 03:39:04;;;;;;;38.87;34.97;;;11.90;99.90;;;;;;5056684;28;20980;-72
2021/09/06 03:41:33;;;;;;;38.37;34.43;;;12.00;99.90;;;;;;5045493;28;20808;-73
2021/09/06 03:44:03;;;;;;;41.33;37.13;;;12.00;99.90;;;;;;5043976;28;20468;-70
2021/09/06 03:46:31;;;;;;;38.33;34.20;;;11.90;99.90;;;;;;5043232;28;20460;-70
2021/09/06 03:48:59;;;;;;;38.57;34.57;;;11.90;99.90;;;;;;5043093;28;20464;-70
2021/09/06 03:51:27;;;;;;;39.13;35.00;;;11.80;99.90;;;;;;5049913;28;20450;-71
2021/09/06 03:53:53;;;;;;;40.17;34.73;;;11.80;99.90;;;;;;5044985;28;20456;-71
2021/09/06 03:56:21;;;;;;;38.97;34.77;;;11.80;99.90;;;;;;5045117;28;20461;-71
2021/09/06 03:58:48;;;;;;;37.27;33.30;;;11.70;99.90;;;;;;5043256;28;20487;-70
2021/09/06 04:01:17;;;;;;;42.40;35.80;;;11.70;99.90;;;;;;5048137;28;20673;-71
2021/09/06 04:03:44;;;;;;;41.20;35.90;;;11.70;99.90;;;;;;5041238;28;20479;-71
2021/09/06 04:06:12;;;;;;;41.43;35.40;;;11.70;99.90;;;;;;5050831;28;20952;-71
2021/09/06 04:08:40;;;;;;;41.23;36.83;;;11.60;99.90;;;;;;5045856;28;20529;-70
2021/09/06 04:11:07;;;;;;;41.37;35.43;;;11.60;99.90;;;;;;5042725;28;20456;-71
2021/09/06 04:13:34;;;;;;;38.83;34.70;;;11.60;99.90;;;;;;5043134;28;20807;-72
2021/09/06 04:16:01;;;;;;;40.33;35.10;;;11.60;99.90;;;;;;5045314;28;21113;-71
2021/09/06 04:18:31;;;;;;;37.83;33.80;;;11.50;99.90;;;;;;5052809;28;20478;-71
2021/09/06 04:20:58;;;;;;;35.20;31.73;;;11.40;99.90;;;;;;5052456;28;20458;-70
2021/09/06 04:23:25;;;;;;;35.40;31.70;;;11.30;99.90;;;;;;5041803;28;20463;-70
2021/09/06 04:25:54;;;;;;;34.27;30.93;;;11.30;99.90;;;;;;5042945;28;20456;-71
2021/09/06 04:28:21;;;;;;;39.33;34.27;;;11.30;99.90;;;;;;5046618;28;20967;-70
2021/09/06 04:30:48;;;;;;;39.00;34.97;;;11.40;99.90;;;;;;5041418;28;20479;-71
2021/09/06 04:33:15;;;;;;;40.13;34.63;;;11.40;99.90;;;;;;5039344;28;20456;-71
2021/09/06 04:35:44;;;;;;;41.60;36.20;;;11.40;99.90;;;;;;5043267;28;20819;-71
2021/09/06 04:38:11;;;;;;;52.43;37.47;;;11.40;99.90;;;;;;5041424;28;21054;-71
2021/09/06 04:40:40;;;;;;;42.57;35.57;;;11.50;99.90;;;;;;5052470;28;20462;-71
2021/09/06 04:43:07;;;;;;;42.93;37.30;;;11.50;99.90;;;;;;5052638;28;20519;-71
2021/09/06 04:45:35;;;;;;;43.00;35.70;;;11.50;99.90;;;;;;5040657;28;20456;-70
2021/09/06 04:48:03;;;;;;;41.90;37.37;;;11.50;99.90;;;;;;5038940;28;21049;-70
2021/09/06 04:50:32;;;;;;;40.10;35.70;;;11.50;99.90;;;;;;5039622;28;20464;-71
2021/09/06 04:53:00;;;;;;;50.03;35.97;;;11.40;99.90;;;;;;5048609;28;20977;-70
2021/09/06 04:55:27;;;;;;;43.50;37.20;;;11.40;99.90;;;;;;5053566;28;20975;-71
2021/09/06 04:57:54;;;;;;;38.97;34.97;;;11.40;99.90;;;;;;5045503;28;20480;-71
2021/09/06 05:00:22;;;;;;;40.40;36.20;;;11.40;99.90;;;;;;5036543;28;20460;-71
2021/09/06 05:02:49;;;;;;;45.47;36.63;;;11.40;99.90;;;;;;5046922;28;20513;-72
2021/09/06 05:05:17;;;;;;;47.57;38.53;;;11.40;99.90;;;;;;5043482;28;20456;-70
2021/09/06 05:07:44;;;;;;;40.47;34.43;;;11.40;99.90;;;;;;5046934;28;20496;-70
2021/09/06 05:10:12;;;;;;;42.30;36.03;;;11.40;99.90;;;;;;5042887;28;20480;-69
2021/09/06 05:12:41;;;;;;;48.33;38.67;;;11.30;99.90;;;;;;5046524;28;20970;-71
2021/09/06 05:15:08;;;;;;;48.87;36.87;;;11.30;99.90;;;;;;5050458;28;20458;-70
2021/09/06 05:17:35;;;;;;;39.03;34.50;;;11.40;99.90;;;;;;5037256;28;20482;-70
2021/09/06 05:20:02;;;;;;;38.80;34.77;;;11.40;99.90;;;;;;5041356;28;20535;-70
2021/09/06 05:22:29;;;;;;;45.30;35.37;;;11.40;99.90;;;;;;5046320;28;20950;-70
2021/09/06 05:24:56;;;;;;;45.10;36.73;;;11.50;99.90;;;;;;5045300;28;21176;-70
2021/09/06 05:27:24;;;;;;;39.93;35.63;;;11.50;99.90;;;;;;5063406;28;20490;-70
2021/09/06 05:29:52;;;;;;;44.97;36.67;;;11.50;99.90;;;;;;5038289;28;20463;-70
2021/09/06 05:32:18;;;;;;;41.43;36.00;;;11.50;99.90;;;;;;5042324;28;20460;-71
2021/09/06 05:34:45;;;;;;;39.60;35.30;;;11.60;99.90;;;;;;5042795;28;20483;-70
2021/09/06 05:37:12;;;;;;;39.13;34.73;;;11.60;99.90;;;;;;5046967;28;20487;-70
2021/09/06 05:39:39;;;;;;;48.97;36.63;;;11.60;99.90;;;;;;5040545;28;20821;-70
2021/09/06 05:42:06;;;;;;;46.57;38.07;;;11.60;99.90;;;;;;5055520;28;20459;-70
2021/09/06 05:44:35;;;;;;;45.33;36.73;;;11.60;99.90;;;;;;5043985;28;20467;-71
2021/09/06 05:47:02;;;;;;;48.27;36.23;;;11.60;99.90;;;;;;5043816;28;20456;-70
2021/09/06 05:49:29;;;;;;;52.70;37.63;;;11.70;99.90;;;;;;5055023;28;20543;-71
2021/09/06 05:51:55;;;;;;;41.47;37.20;;;11.80;99.90;;;;;;5054458;28;20470;-71
2021/09/06 05:54:23;;;;;;;38.90;34.70;;;11.90;99.90;;;;;;5050579;28;20468;-70
2021/09/06 05:56:49;;;;;;;42.67;36.80;;;11.90;99.90;;;;;;5041498;28;20941;-70
2021/09/06 05:59:16;;;;;;;44.37;36.53;;;12.00;99.90;;;;;;5040442;28;20484;-71
2021/09/06 06:01:45;;;;;;;48.90;36.87;;;12.10;99.90;;;;;;5045545;28;20467;-70
2021/09/06 06:04:12;;;;;;;42.37;37.00;;;12.20;99.90;;;;;;5038137;28;20530;-70
2021/09/06 06:06:38;;;;;;;40.40;35.47;;;12.30;99.90;;;;;;5038761;28;20833;-71
2021/09/06 06:09:05;;;;;;;40.47;36.20;;;12.40;99.90;;;;;;5029861;28;20472;-69
2021/09/06 06:11:37;;;;;;;52.57;39.13;;;12.50;99.90;;;;;;5034426;28;20553;-70
2021/09/06 06:14:04;;;;;;;56.57;41.13;;;12.60;99.90;;;;;;5043257;28;20452;-71
2021/09/06 06:16:31;;;;;;;49.57;38.77;;;12.60;99.90;;;;;;5047866;28;20468;-72
2021/09/06 06:19:00;;;;;;;55.17;41.77;;;12.70;99.90;;;;;;5053726;28;20486;-69
2021/09/06 06:21:27;;;;;;;46.20;37.80;;;12.80;99.90;;;;;;5046519;28;20933;-70
2021/09/06 06:23:54;;;;;;;45.57;38.93;;;12.90;99.90;;;;;;5043905;28;20452;-70
2021/09/06 06:26:22;;;;;;;46.43;37.33;;;13.00;99.90;;;;;;5036545;28;21277;-69
2021/09/06 06:28:49;;;;;;;54.87;39.80;;;13.10;99.90;;;;;;5035456;28;20464;-70
2021/09/06 06:31:16;;;;;;;55.87;41.90;;;13.20;99.90;;;;;;5038228;28;20492;-70
2021/09/06 06:33:43;;;;;;;46.47;39.10;;;13.30;99.90;;;;;;5050848;28;20494;-70
2021/09/06 06:36:11;;;;;;;48.17;40.10;;;13.40;99.90;;;;;;5032286;28;20461;-68
2021/09/06 06:38:38;;;;;;;49.80;37.97;;;13.50;99.90;;;;;;5031966;28;20511;-69
2021/09/06 06:41:05;;;;;;;62.87;41.17;;;13.70;99.90;;;;;;5038208;28;20463;-69
2021/09/06 06:43:33;;;;;;;51.50;40.20;;;13.70;99.90;;;;;;5037995;28;20463;-69
2021/09/06 06:46:01;;;;;;;59.03;40.47;;;13.80;99.90;;;;;;5049844;28;20494;-69
2021/09/06 06:48:28;;;;;;;55.93;43.17;;;14.00;99.90;;;;;;5054675;28;20652;-70
2021/09/06 06:50:54;;;;;;;53.00;42.13;;;14.20;99.90;;;;;;5042412;28;20467;-69
2021/09/06 06:53:23;;;;;;;61.87;43.70;;;14.30;99.90;;;;;;5041833;28;20463;-69
2021/09/06 06:55:49;;;;;;;52.53;41.47;;;14.40;99.90;;;;;;5044357;28;20463;-69
2021/09/06 06:58:16;;;;;;;66.73;45.70;;;14.50;99.90;;;;;;5040815;28;20490;-69
2021/09/06 07:00:43;;;;;;;58.73;44.63;;;14.60;99.90;;;;;;5039820;28;20475;-69
2021/09/06 07:03:10;;;;;;;56.03;42.80;;;14.70;99.90;;;;;;5043372;28;20554;-69
2021/09/06 07:05:37;;;;;;;66.73;45.97;;;14.80;99.90;;;;;;5040098;28;20499;-69
2021/09/06 07:08:04;;;;;;;65.67;45.00;;;14.90;99.90;;;;;;5036442;28;20469;-70
2021/09/06 07:10:32;;;;;;;59.00;44.57;;;15.00;99.90;;;;;;5033168;28;20471;-69
2021/09/06 07:12:59;;;;;;;53.27;40.80;;;15.20;99.90;;;;;;5041286;28;20461;-69
2021/09/06 07:15:31;;;;;;;65.43;43.83;;;15.30;99.90;;;;;;5043030;28;21228;-70
2021/09/06 07:17:58;;;;;;;71.20;47.73;;;15.40;99.90;;;;;;5040687;28;20484;-69
2021/09/06 07:20:25;;;;;;;61.43;46.67;;;15.50;99.90;;;;;;5041258;28;20505;-69
2021/09/06 07:22:52;;;;;;;76.63;46.17;;;15.60;99.90;;;;;;5037755;28;20881;-69
2021/09/06 07:25:19;;;;;;;72.23;49.13;;;15.70;99.90;;;;;;5038371;28;21013;-69
2021/09/06 07:27:47;;;;;;;61.80;44.13;;;15.90;99.90;;;;;;5044032;28;20504;-69
2021/09/06 07:30:14;;;;;;;64.73;45.33;;;16.00;99.90;;;;;;5041126;28;20460;-69
2021/09/06 07:32:41;;;;;;;75.83;49.80;;;16.10;99.90;;;;;;5037628;28;20472;-71
2021/09/06 07:35:08;;;;;;;71.97;50.77;;;16.30;99.90;;;;;;5042100;28;20503;-70
2021/09/06 07:37:35;;;;;;;74.07;50.87;;;16.40;99.90;;;;;;5041869;28;20466;-69
2021/09/06 07:40:02;;;;;;;67.83;47.83;;;16.50;99.90;;;;;;5042538;28;20561;-69
2021/09/06 07:42:29;;;;;;;66.40;47.57;;;16.60;99.90;;;;;;5049997;28;21122;-69
2021/09/06 07:44:57;;;;;;;65.40;47.73;;;16.80;99.90;;;;;;5049865;28;20958;-69
2021/09/06 07:47:24;;;;;;;70.20;49.93;;;16.90;99.90;;;;;;5032773;28;20798;-69
2021/09/06 07:49:51;;;;;;;64.90;48.17;;;17.00;99.90;;;;;;5036130;28;20467;-69
2021/09/06 07:52:18;;;;;;;65.17;45.87;;;17.20;99.90;;;;;;5039229;28;20467;-69
2021/09/06 07:54:45;;;;;;;70.70;49.27;;;17.20;99.90;;;;;;5036843;28;20468;-69
2021/09/06 07:57:12;;;;;;;61.53;45.83;;;17.30;99.90;;;;;;5044611;28;21031;-70
2021/09/06 07:59:39;;;;;;;64.00;45.90;;;17.40;99.90;;;;;;5046514;28;20601;-69
2021/09/06 08:02:08;;;;;;;57.10;44.37;;;17.40;99.90;;;;;;5041440;28;20573;-71
2021/09/06 08:04:35;;;;;;;65.97;46.80;;;17.50;99.90;;;;;;5038603;28;20476;-70
2021/09/06 08:07:02;;;;;;;56.87;42.77;;;17.60;99.90;;;;;;5035382;28;20651;-71
2021/09/06 08:09:29;;;;;;;58.67;43.50;;;17.70;99.90;;;;;;5042437;28;20471;-70
2021/09/06 08:11:56;;;;;;;53.27;43.20;;;17.90;99.90;;;;;;5029809;28;20464;-70
2021/09/06 08:14:24;;;;;;;69.63;44.43;;;17.90;99.90;;;;;;5043911;28;20532;-70
2021/09/06 08:16:51;;;;;;;54.57;40.67;;;18.10;99.90;;;;;;5039203;28;20460;-70
2021/09/06 08:19:19;;;;;;;52.03;41.27;;;18.30;99.90;;;;;;5040162;28;20487;-70
2021/09/06 08:21:46;;;;;;;59.43;44.10;;;18.50;99.90;;;;;;5041917;28;20464;-70
2021/09/06 08:24:14;;;;;;;58.33;44.23;;;18.60;99.90;;;;;;5048924;28;20627;-71
2021/09/06 08:26:41;;;;;;;52.80;42.00;;;18.70;99.90;;;;;;5041504;28;20463;-70
2021/09/06 08:29:09;;;;;;;52.23;40.93;;;18.90;99.90;;;;;;5036946;28;20458;-71
2021/09/06 08:31:36;;;;;;;51.60;43.47;;;19.00;99.90;;;;;;5039868;28;20547;-70
2021/09/06 08:34:03;;;;;;;50.47;40.70;;;19.20;99.90;;;;;;5041760;28;20476;-70
2021/09/06 08:36:31;;;;;;;47.00;40.60;;;19.30;99.90;;;;;;5046477;28;20461;-71
2021/09/06 08:38:58;;;;;;;67.50;40.97;;;19.50;99.90;;;;;;5056943;28;20490;-71
2021/09/06 08:41:25;;;;;;;57.60;38.43;;;19.70;99.90;;;;;;5044466;28;20455;-73
2021/09/06 08:43:52;;;;;;;56.00;38.70;;;19.80;99.90;;;;;;5039053;28;20527;-71
2021/09/06 08:46:23;;;;;;;48.03;38.63;;;20.00;99.90;;;;;;5042329;28;20472;-70
2021/09/06 08:48:50;;;;;;;48.33;38.10;;;20.20;99.90;;;;;;5053891;28;20464;-71
2021/09/06 08:51:18;;;;;;;48.47;39.43;;;20.40;99.90;;;;;;5045583;28;20456;-71
2021/09/06 08:53:46;;;;;;;48.53;39.63;;;20.50;99.90;;;;;;5040007;28;20495;-71
2021/09/06 08:56:13;;;;;;;51.67;38.93;;;20.60;99.90;;;;;;5041061;28;20468;-71
2021/09/06 08:58:40;;;;;;;49.93;36.37;;;20.90;99.90;;;;;;5038837;28;21064;-70
2021/09/06 09:01:07;;;;;;;44.70;38.57;;;21.00;99.90;;;;;;5038772;28;20630;-71
2021/09/06 09:03:34;;;;;;;49.33;37.40;;;21.00;99.90;;;;;;5040852;28;20519;-72
2021/09/06 09:06:02;;;;;;;50.43;35.83;;;21.10;99.90;;;;;;5043347;28;20817;-70
2021/09/06 09:08:30;;;;;;;39.20;34.93;;;21.40;99.90;;;;;;5038057;28;20460;-71
2021/09/06 09:11:00;;;;;;;46.03;36.57;;;21.60;99.90;;;;;;5034458;28;20483;-71
2021/09/06 09:13:31;;;;;;;47.60;36.97;;;22.10;99.90;;;;;;5043857;28;20458;-71
2021/09/06 09:15:59;;;;;;;42.33;34.87;;;22.90;99.90;;;;;;5046535;28;20452;-72
2021/09/06 09:18:27;;;;;;;42.03;34.10;;;23.80;99.90;;;;;;5038986;28;20544;-71
2021/09/06 09:20:59;;;;;;;44.63;32.63;;;24.70;99.90;;;;;;5039173;28;20472;-71
2021/09/06 09:23:41;;;;;;;45.73;34.30;;;25.60;99.90;;;;;;5042993;28;20464;-71
2021/09/06 09:26:10;;;;;;;38.20;34.00;;;26.20;99.90;;;;;;5037225;28;20455;-71
2021/09/06 09:28:40;;;;;;;36.83;33.20;;;26.80;99.90;;;;;;5042449;28;20492;-70
2021/09/06 09:31:08;;;;;;;38.77;33.97;;;26.90;99.90;;;;;;5044232;28;20460;-72
2021/09/06 09:33:43;;;;;;;38.47;32.80;;;27.20;99.90;;;;;;5037528;28;20908;-72
2021/09/06 09:36:10;;;;;;;38.07;34.23;;;28.10;99.90;;;;;;5044092;28;20452;-72
2021/09/06 09:38:38;;;;;;;36.97;33.57;;;28.80;99.90;;;;;;5039124;28;20822;-72
2021/09/06 09:41:14;;;;;;;37.23;33.53;;;29.70;99.90;;;;;;5046048;28;20462;-71
2021/09/06 09:43:41;;;;;;;42.70;33.90;;;30.70;99.90;;;;;;5035036;28;20470;-71
2021/09/06 09:46:08;;;;;;;37.53;33.03;;;30.60;99.90;;;;;;5038780;28;20786;-72
2021/09/06 09:48:35;;;;;;;35.00;31.53;;;31.20;99.90;;;;;;5038202;28;20574;-72
2021/09/06 09:51:02;;;;;;;33.67;30.67;;;31.40;99.90;;;;;;5043888;28;20468;-72
2021/09/06 09:53:31;;;;;;;32.27;29.30;;;31.00;96.70;;;;;;5042949;28;20464;-72
2021/09/06 09:55:58;;;;;;;34.77;31.40;;;30.80;96.30;;;;;;5038609;28;20552;-72
2021/09/06 09:58:27;;;;;;;33.17;30.53;;;30.90;96.40;;;;;;5046732;28;20455;-72
2021/09/06 10:00:55;;;;;;;32.57;29.70;;;31.60;96.00;;;;;;5040025;28;20491;-71
2021/09/06 10:03:25;;;;;;;33.30;30.47;;;32.10;93.90;;;;;;5039341;28;20487;-73
2021/09/06 10:05:53;;;;;;;30.60;27.87;;;32.30;92.70;;;;;;5038842;28;20469;-73
2021/09/06 10:08:21;;;;;;;31.33;28.83;;;32.50;91.80;;;;;;5047258;28;20574;-72
2021/09/06 10:10:48;;;;;;;30.27;27.67;;;31.80;90.60;;;;;;5040097;28;20452;-74
2021/09/06 10:13:16;;;;;;;30.73;28.13;;;31.70;91.20;;;;;;5039085;28;20459;-72
2021/09/06 10:15:57;;;;;;;31.50;28.80;;;31.50;91.10;;;;;;5031493;28;20476;-71
2021/09/06 10:18:25;;;;;;;29.80;27.30;;;31.50;91.70;;;;;;5045023;28;20460;-72
2021/09/06 10:20:54;;;;;;;33.27;30.00;;;31.30;91.30;;;;;;5043879;28;20904;-74
2021/09/06 10:23:21;;;;;;;28.63;26.20;;;31.50;91.00;;;;;;5039131;28;20471;-73
2021/09/06 10:25:51;;;;;;;32.00;29.20;;;30.60;90.70;;;;;;5037025;28;20455;-73
2021/09/06 10:28:19;;;;;;;29.63;27.30;;;30.70;90.80;;;;;;5045542;28;20466;-74
2021/09/06 10:30:50;;;;;;;30.50;27.90;;;31.20;90.10;;;;;;5046204;28;20472;-74
2021/09/06 10:33:26;;;;;;;27.83;25.50;;;31.50;91.30;;;;;;5039137;28;21337;-73
2021/09/06 10:36:12;;;;;;;30.47;28.00;;;31.90;89.70;;;;;;5042762;28;20454;-72
2021/09/06 10:38:41;;;;;;;31.10;28.30;;;31.80;89.70;;;;;;5038444;28;20460;-70
2021/09/06 10:41:13;;;;;;;32.23;29.40;;;31.40;89.70;;;;;;5047544;28;20470;-71
2021/09/06 10:43:46;;;;;;;31.60;28.77;;;31.00;90.00;;;;;;5039965;28;20544;-72
2021/09/06 10:46:15;;;;;;;32.57;29.77;;;30.80;90.40;;;;;;5032343;28;20456;-72
2021/09/06 10:48:42;;;;;;;32.00;29.10;;;31.00;90.10;;;;;;5038835;28;20467;-72
2021/09/06 10:51:10;;;;;;;30.97;28.30;;;31.10;89.70;;;;;;5041383;28;20464;-72
2021/09/06 10:53:38;;;;;;;31.43;28.13;;;30.80;90.40;;;;;;5037616;28;20471;-72
2021/09/06 10:56:07;;;;;;;31.33;28.47;;;31.30;90.10;;;;;;5045061;28;20451;-73
2021/09/06 10:58:34;;;;;;;31.33;28.73;;;31.50;90.80;;;;;;5035509;28;20455;-74
2021/09/06 11:01:04;;;;;;;34.33;31.17;;;31.90;89.00;;;;;;5038059;28;20508;-72
2021/09/06 11:03:37;;;;;;;32.00;29.40;;;32.10;88.90;;;;;;5038921;28;20483;-73
2021/09/06 11:06:05;;;;;;;32.00;29.27;;;32.40;87.40;;;;;;5041621;28;20543;-72
2021/09/06 11:08:36;;;;;;;31.47;28.83;;;32.40;88.00;;;;;;5035813;28;20879;-72
2021/09/06 11:11:05;;;;;;;32.10;29.27;;;33.30;88.00;;;;;;5042889;28;20936;-72
2021/09/06 11:13:36;;;;;;;31.90;29.20;;;32.90;86.50;;;;;;5038639;28;20452;-72
2021/09/06 11:16:05;;;;;;;33.33;30.33;;;32.50;84.40;;;;;;5041784;28;20975;-74
2021/09/06 11:18:32;;;;;;;31.77;28.97;;;32.30;84.30;;;;;;5051744;28;20466;-72
2021/09/06 11:21:02;;;;;;;30.43;27.70;;;32.50;83.90;;;;;;5047339;28;20507;-71
2021/09/06 11:23:32;;;;;;;33.53;30.43;;;32.30;85.40;;;;;;5039042;28;20459;-72
2021/09/06 11:25:59;;;;;;;31.37;28.37;;;32.90;85.50;;;;;;5036804;28;20464;-71
2021/09/06 11:28:27;;;;;;;29.57;26.90;;;33.80;83.00;;;;;;5031311;28;20528;-73
2021/09/06 11:30:55;;;;;;;30.53;27.80;;;34.30;81.50;;;;;;5041898;28;20511;-71
2021/09/06 11:33:24;;;;;;;30.53;28.03;;;34.80;80.00;;;;;;5041184;28;20523;-72
2021/09/06 11:35:52;;;;;;;28.40;26.17;;;34.70;75.80;;;;;;5040676;28;20451;-75
2021/09/06 11:38:21;;;;;;;29.63;26.93;;;34.10;77.20;;;;;;5048718;28;20470;-72
2021/09/06 11:40:54;;;;;;;28.53;26.20;;;33.80;79.10;;;;;;5038424;28;20503;-73
2021/09/06 11:43:23;;;;;;;31.17;28.37;;;33.80;78.70;;;;;;5033245;28;20951;-72
2021/09/06 11:45:59;;;;;;;29.27;26.53;;;33.90;78.00;;;;;;5039536;28;20506;-73
2021/09/06 11:48:27;;;;;;;29.33;26.47;;;34.70;73.90;;;;;;5042856;28;20500;-72
2021/09/06 11:50:55;;;;;;;29.43;26.90;;;34.30;72.20;;;;;;5042935;28;20452;-73
2021/09/06 11:53:29;;;;;;;27.20;24.67;;;34.20;74.40;;;;;;5037671;28;20463;-71
2021/09/06 11:55:57;;;;;;;29.07;26.70;;;34.30;73.00;;;;;;5044534;28;20474;-71
2021/09/06 11:58:26;;;;;;;29.77;27.40;;;34.20;72.90;;;;;;5039880;28;20802;-74
2021/09/06 12:00:54;;;;;;;28.30;25.87;;;34.30;71.70;;;;;;5041540;28;20495;-71
2021/09/06 12:03:25;;;;;;;30.27;27.33;;;34.40;72.00;;;;;;5050840;28;20526;-72
2021/09/06 12:06:02;;;;;;;31.50;28.77;;;34.90;70.10;;;;;;5042055;28;20946;-71
2021/09/06 12:08:31;;;;;;;29.27;26.77;;;34.60;69.50;;;;;;5039429;28;20451;-75
2021/09/06 12:11:06;;;;;;;29.77;27.27;;;34.90;71.10;;;;;;5036383;28;20456;-72
2021/09/06 12:13:34;;;;;;;28.23;25.83;;;35.00;68.70;;;;;;5040978;28;20925;-72
2021/09/06 12:16:03;;;;;;;28.10;25.70;;;34.70;71.00;;;;;;5044629;28;20461;-71
2021/09/06 12:18:35;;;;;;;27.33;25.03;;;34.40;68.80;;;;;;5046522;28;20468;-72
2021/09/06 12:21:04;;;;;;;25.33;23.43;;;34.80;65.70;;;;;;5053653;28;20981;-71
2021/09/06 12:23:34;;;;;;;27.60;25.50;;;34.30;67.30;;;;;;5043718;28;20464;-71
2021/09/06 12:26:01;;;;;;;28.03;25.83;;;34.40;64.80;;;;;;5040528;28;20456;-71
2021/09/06 12:28:28;;;;;;;27.00;24.90;;;34.40;63.50;;;;;;5036812;28;20635;-74
2021/09/06 12:31:01;;;;;;;25.27;23.10;;;34.60;62.10;;;;;;5038085;28;20456;-75
2021/09/06 12:33:29;;;;;;;24.17;22.13;;;34.60;64.20;;;;;;5040713;28;20490;-74